Kezdőlap
METAR-TAF:

METAR-TAF

Repülőterek :

Dalcahue, Chile

földrajzi szélesség: 42-20-25S, földrajzi hosszúság: 073-42-56W, magasság: 161 m

Jelenlegi meteorológiai megfigyelések

A jelentés 1 órával és 14 perccel ezelõtt készült, 06:00 UTC
Észak-északnyugati szél 12 kt
Hőmérséklet 9°C
Páratartalom 93%
Légköri nyomás 1005 hPa
Látótávolság 10 km, vagy több
Kevés felhő 1500 lábon
Szakadozott felhőzet 2500 lábon
enyhe záporok,

METAR: SCPQ 250600Z AUTO 33012KT 9999 -SHRA FEW015 BKN025 09/08 Q1005

Idő: 03:14 (07:14 UTC)


TAF: hiányzik

Meteorológiai megfigyelések és előrejelzések több, mint 4000 repülőtéren (METAR és TAF jelentéseket).

A térképen piros és sárga pontok jelzik az elérhető meteorológiai állomásokat.

Mozgassa az egeret a pont fölött, hogy megjelenjen az állomás neve.

Azután kattintson az időjárási megfigyelések és előrejelzések megtekintéséhez.

A térkép megváltoztatása: kattintson a fekete keresztel jelölt zöld gombra ráközelítéshez, a vonallal jelölt zöld gombra távolításhoz, vagy a zöld nyilakra a szomszédos térképek eléréséhez.


METAR-TAF: